Aérodrome :
LOGIN :

S'inscrire | Disclaimer

   EN    FR    IT 

 










Légende :    VFR   VFR Marginal   IFR   IFR Intensif   IFR Très Intensif
Visi : 
Plafond : 
>= 8 km
>= 3000ft
5 à 8 km
1000 à 3000 ft
1500m à 5 km
500 à 1000 ft
800 à 1500m
200 à 500 ft
< 800m
< 200 ft
Symboles :   Orages  Brouillard  Fortes neiges  Fortes précipitations  Vent > 20 kt
SIGMETs :   Divers  Orages  Givrage  Turbulence  Onde Orograph.  Cendres Volcan.







- Altitude de l'aérodrome : 2077 ft
- Code IATA : FMM


EDJA - Memmingen

DERNIER METAR :
  • 241420Z 32006KT 250V350 9999 SCT045 BKN052 BKN098 18/08 Q1020

METARs EXPIRÉS :
  • 241350Z 27004KT 170V340 9999 SCT043 BKN098 BKN110 19/09 Q1020
  • 241320Z VRB05KT 9999 FEW040 SCT046 BKN098 18/09 Q1020
  • 241250Z 36006KT 9999 SCT038 BKN160 BKN200 18/09 Q1020
  • 241220Z 35007KT 280V050 9999 SCT038 SCT098 BKN160 18/08 Q1020
  • 241150Z VRB05KT 9999 FEW036 BKN098 18/09 Q1021
  • 241120Z VRB03KT 9999 SCT033 18/09 Q1021

TAF TAF EDJA
Valide du 24 à 12h jusqu'au 24 à 21h UTC


241100Z 2412/2421 02005KT 9999 FEW030 SCT040
Pas de NOTAMs connus pour ce terrain.



MET'MAP, la Météo Aéronautique d'un coup d'oeil ! - Copyright ORBIFLY Décembre 2007 - Disclaimer

ORBIFLY MET'MAP TEAM :

Programmation & Développement : Alexandra Zaïnal
Conception & Développement : Baudouin d'Aumeries
Co-Programmation & Développement : Marc-Olivier Méhu
Soutien technique & logistique : Manuel Goepfert

Contact : metmap@orbifly.com




SOURCES & CREDITS :

   NOAA